Time;durP1;ratioP1;P1;durP2;ratioP2;P2;SDS_P1;SDS_P2;PMS_P1;PMS_P2;Temp;Humidity;BMP_temperature;BMP_pressure;BME280_temperature;BME280_humidity;BME280_pressure;Samples;Min_cycle;Max_cycle;Signal;HPM_P1;HPM_P2
2022/04/06 00:01:38;;;;;;;54.92;27.25;;;256.90;2022.40;;;;;;5002618;28;20109;-77
2022/04/06 00:04:03;;;;;;;40.92;23.85;;;256.90;2022.40;;;;;;5002656;28;20022;-77
2022/04/06 00:06:29;;;;;;;;;;;256.90;2022.40;;;;;;5001931;28;20034;-77
2022/04/06 00:08:55;;;;;;;50.78;26.30;;;256.70;2073.60;;;;;;5002769;28;20317;-77
2022/04/06 00:11:20;;;;;;;;;;;256.70;2073.60;;;;;;5002797;28;20021;-76
2022/04/06 00:13:46;;;;;;;48.70;24.23;;;256.70;2124.80;;;;;;5002977;28;19912;-83
2022/04/06 00:16:12;;;;;;;;;;;256.70;2073.60;;;;;;5003571;28;20030;-77
2022/04/06 00:18:37;;;;;;;47.53;25.42;;;256.70;2048.00;;;;;;5001578;28;19906;-78
2022/04/06 00:21:03;;;;;;;;;;;256.50;2099.20;;;;;;5002410;28;20125;-78
2022/04/06 00:23:29;;;;;;;60.33;28.58;;;256.50;2073.60;;;;;;5002927;28;19905;-77
2022/04/06 00:25:57;;;;;;;54.28;28.95;;;256.40;2099.20;;;;;;5002148;28;20042;-77
2022/04/06 00:28:23;;;;;;;56.28;27.85;;;256.30;2099.20;;;;;;5002567;28;20394;-77
2022/04/06 00:30:49;;;;;;;46.08;27.35;;;256.20;2124.80;;;;;;5003045;28;20019;-77
2022/04/06 00:33:15;;;;;;;;;;;256.30;2150.40;;;;;;5002850;28;20045;-83
2022/04/06 00:35:40;;;;;;;55.70;25.85;;;256.40;2124.80;;;;;;5002752;28;19906;-77
2022/04/06 00:38:08;;;;;;;49.38;26.92;;;256.20;2150.40;;;;;;5002947;28;20402;-82
2022/04/06 00:40:35;;;;;;;50.40;25.42;;;256.30;2150.40;;;;;;5002350;28;20078;-78
2022/04/06 00:43:10;;;;;;;44.13;25.85;;;256.20;2176.00;;;;;;5002506;28;20026;-83
2022/04/06 00:45:38;;;;;;;47.20;25.55;;;256.20;2176.00;;;;;;5003031;28;20029;-78
2022/04/06 00:48:05;;;;;;;46.40;25.58;;;256.10;2176.00;;;;;;5002219;28;20399;-78
2022/04/06 00:50:30;;;;;;;36.10;22.42;;;231.30;2252.80;;;;;;5002597;28;20026;-78
2022/04/06 00:52:57;;;;;;;38.55;23.55;;;231.10;2252.80;;;;;;5002885;28;20026;-77
2022/04/06 00:55:33;;;;;;;40.35;22.98;;;231.00;2252.80;;;;;;5001362;28;20514;-78
2022/04/06 00:57:59;;;;;;;43.35;23.23;;;231.20;2252.80;;;;;;5001308;28;20022;-83
2022/04/06 01:00:25;;;;;;;44.08;24.13;;;231.00;2252.80;;;;;;5002894;28;20123;-78
2022/04/06 01:02:51;;;;;;;46.42;23.73;;;231.00;2252.80;;;;;;5002549;28;20019;-79
2022/04/06 01:05:18;;;;;;;53.22;26.27;;;231.10;2252.80;;;;;;5002101;28;20359;-82
2022/04/06 01:07:48;;;;;;;51.20;23.95;;;231.20;2252.80;;;;;;5002195;28;20532;-78
2022/04/06 01:10:14;;;;;;;44.65;23.30;;;231.30;2227.20;;;;;;5003670;28;20026;-77
2022/04/06 01:12:40;;;;;;;35.28;20.52;;;256.10;2227.20;;;;;;5004891;28;20026;-77
2022/04/06 01:15:07;;;;;;;;;;;256.10;2201.60;;;;;;5006680;28;20033;-77
2022/04/06 01:17:33;;;;;;;46.58;23.65;;;256.00;2150.40;;;;;;5006756;28;19914;-79
2022/04/06 01:20:03;;;;;;;39.75;23.02;;;256.20;2201.60;;;;;;5004444;28;20031;-78
2022/04/06 01:22:29;;;;;;;43.33;23.55;;;231.30;2252.80;;;;;;5004908;28;20037;-77
2022/04/06 01:24:55;;;;;;;40.70;23.20;;;231.10;2252.80;;;;;;5006245;28;20037;-77
2022/04/06 01:27:21;;;;;;;37.42;23.05;;;230.90;2252.80;;;;;;5004478;28;20022;-78
2022/04/06 01:29:48;;;;;;;;;;;230.70;2252.80;;;;;;5005694;28;20474;-79
2022/04/06 01:32:16;;;;;;;;;;;230.70;2252.80;;;;;;5007621;28;19952;-77
2022/04/06 01:34:43;;;;;;;41.42;22.92;;;230.40;2252.80;;;;;;5004633;28;19912;-78
2022/04/06 01:37:10;;;;;;;41.50;23.40;;;205.60;2252.80;;;;;;5005084;28;20030;-77
2022/04/06 01:39:37;;;;;;;45.28;25.92;;;205.60;2252.80;;;;;;5006470;28;20046;-78
2022/04/06 01:42:05;;;;;;;49.03;26.67;;;205.60;2252.80;;;;;;5004056;28;20031;-81
2022/04/06 01:44:32;;;;;;;46.53;25.70;;;205.60;2252.80;;;;;;5004847;28;20108;-77
2022/04/06 01:46:59;;;;;;;45.35;24.98;;;205.60;2252.80;;;;;;5007200;28;20497;-77
2022/04/06 01:52:12;;;;;;;44.65;24.02;;;205.30;2252.80;;;;;;5006315;28;20052;-77
2022/04/06 01:54:53;;;;;;;46.75;25.15;;;205.30;2252.80;;;;;;5003544;28;20061;-77
2022/04/06 01:57:20;;;;;;;44.28;24.42;;;205.00;2252.80;;;;;;5003920;28;20066;-83
2022/04/06 01:59:47;;;;;;;49.03;26.65;;;205.10;2252.80;;;;;;5006446;28;20028;-77
2022/04/06 02:02:15;;;;;;;40.88;26.80;;;180.10;2252.80;;;;;;5005041;28;20046;-78
2022/04/06 02:04:41;;;;;;;47.53;27.55;;;180.00;2252.80;;;;;;5003642;28;20117;-77
2022/04/06 02:07:09;;;;;;;51.92;26.02;;;180.10;2252.80;;;;;;5004862;28;20026;-83
2022/04/06 02:09:36;;;;;;;47.08;26.77;;;204.90;2252.80;;;;;;5005453;28;20088;-78
2022/04/06 02:12:03;;;;;;;46.85;27.05;;;204.80;2252.80;;;;;;5004521;28;20030;-77
2022/04/06 02:14:29;;;;;;;48.42;26.27;;;180.10;2252.80;;;;;;5004511;28;20030;-77
2022/04/06 02:16:54;;;;;;;;;;;179.90;2252.80;;;;;;5005597;28;20172;-77
2022/04/06 02:19:21;;;;;;;44.80;25.25;;;179.90;2252.80;;;;;;5003382;28;19906;-78
2022/04/06 02:21:47;;;;;;;47.63;25.77;;;180.00;2252.80;;;;;;5004698;28;20041;-77
2022/04/06 02:24:13;;;;;;;;;;;180.00;2252.80;;;;;;5004975;28;20030;-77
2022/04/06 02:26:39;;;;;;;49.83;25.75;;;180.10;2252.80;;;;;;5003341;28;19993;-78
2022/04/06 02:29:05;;;;;;;;;;;180.10;2252.80;;;;;;5005464;28;20403;-78
2022/04/06 02:31:31;;;;;;;44.95;25.40;;;204.90;2252.80;;;;;;5004151;28;19906;-77
2022/04/06 02:33:57;;;;;;;45.15;26.77;;;180.10;2252.80;;;;;;5003140;28;20026;-77
2022/04/06 02:36:23;;;;;;;;;;;205.20;2252.80;;;;;;5005426;28;20028;-78
2022/04/06 02:38:50;;;;;;;49.85;26.00;;;205.20;2252.80;;;;;;5003985;28;19906;-78
2022/04/06 02:41:15;;;;;;;47.33;28.00;;;205.20;2252.80;;;;;;5003175;28;20038;-77
2022/04/06 02:43:41;;;;;;;;;;;205.20;2252.80;;;;;;5005313;28;20084;-78
2022/04/06 02:46:07;;;;;;;43.78;24.52;;;205.30;2252.80;;;;;;5003483;28;19906;-78
2022/04/06 02:48:33;;;;;;;42.75;25.23;;;205.20;2252.80;;;;;;5003721;28;20018;-78
2022/04/06 02:50:59;;;;;;;;;;;205.20;2252.80;;;;;;5006310;28;20028;-77
2022/04/06 02:53:24;;;;;;;46.92;25.00;;;205.20;2252.80;;;;;;5002798;28;19909;-77
2022/04/06 02:55:50;;;;;;;;;;;205.10;2252.80;;;;;;5004324;28;20517;-79
2022/04/06 02:58:16;;;;;;;40.78;23.10;;;205.20;2252.80;;;;;;5003911;28;19906;-78
2022/04/06 03:00:42;;;;;;;47.38;24.92;;;205.00;2252.80;;;;;;5002631;28;20494;-78
2022/04/06 03:03:08;;;;;;;;;;;205.00;2252.80;;;;;;5004359;28;20029;-79
2022/04/06 03:05:34;;;;;;;39.83;22.67;;;204.90;2252.80;;;;;;5003291;28;20365;-77
2022/04/06 03:07:59;;;;;;;;;;;204.80;2252.80;;;;;;5003085;28;20018;-77
2022/04/06 03:10:25;;;;;;;40.72;21.55;;;180.10;2252.80;;;;;;5004587;28;19920;-78
2022/04/06 03:12:51;;;;;;;;;;;180.10;2252.80;;;;;;5004382;28;20050;-82
2022/04/06 03:15:17;;;;;;;41.90;23.23;;;180.10;2252.80;;;;;;5003099;28;19976;-78
2022/04/06 03:17:42;;;;;;;;;;;180.00;2252.80;;;;;;5005888;28;20489;-78
2022/04/06 03:20:11;;;;;;;36.85;21.35;;;180.10;2252.80;;;;;;5003624;28;20000;-78
2022/04/06 03:22:37;;;;;;;42.58;23.27;;;204.90;2252.80;;;;;;5002722;28;20029;-84
2022/04/06 03:25:03;;;;;;;;;;;205.00;2252.80;;;;;;5005887;28;20116;-78
2022/04/06 03:27:29;;;;;;;44.17;22.48;;;205.30;2252.80;;;;;;5002586;28;20374;-77
2022/04/06 03:29:55;;;;;;;;;;;205.30;2252.80;;;;;;5005006;28;20033;-77
2022/04/06 03:32:20;;;;;;;43.08;22.40;;;205.50;2252.80;;;;;;5005365;28;19906;-78
2022/04/06 03:34:46;;;;;;;;;;;205.60;2252.80;;;;;;5001915;28;20056;-84
2022/04/06 03:37:11;;;;;;;40.33;20.13;;;205.60;2252.80;;;;;;5004882;28;20333;-84
2022/04/06 03:39:37;;;;;;;;;;;205.60;2252.80;;;;;;5003923;28;20018;-84
2022/04/06 03:42:03;;;;;;;38.00;20.30;;;205.50;2252.80;;;;;;5001741;28;20275;-77
2022/04/06 03:44:29;;;;;;;;;;;205.40;2252.80;;;;;;5004239;28;20021;-83
2022/04/06 03:46:56;;;;;;;38.70;19.73;;;205.30;2252.80;;;;;;5004081;28;19906;-83
2022/04/06 03:49:22;;;;;;;37.67;20.77;;;205.20;2252.80;;;;;;5003542;28;20471;-83
2022/04/06 03:51:47;;;;;;;;;;;205.20;2252.80;;;;;;5004490;28;20052;-77
2022/04/06 03:54:13;;;;;;;33.35;20.67;;;205.50;2252.80;;;;;;5002399;28;19917;-78
2022/04/06 03:56:39;;;;;;;;;;;205.60;2252.80;;;;;;5004037;28;20386;-78
2022/04/06 03:59:04;;;;;;;31.02;17.67;;;205.60;2252.80;;;;;;5004335;28;19913;-82
2022/04/06 04:01:30;;;;;;;;;;;205.50;2252.80;;;;;;5003709;28;20032;-83
2022/04/06 04:03:57;;;;;;;34.50;19.05;;;205.60;2252.80;;;;;;5002920;28;20385;-80
2022/04/06 04:06:22;;;;;;;41.33;19.20;;;205.40;2252.80;;;;;;5002988;28;20106;-79
2022/04/06 04:08:48;;;;;;;;;;;205.30;2252.80;;;;;;5004092;28;20045;-77
2022/04/06 04:11:14;;;;;;;38.33;18.20;;;205.30;2252.80;;;;;;5002603;28;20004;-77
2022/04/06 04:13:39;;;;;;;;;;;205.20;2252.80;;;;;;5002578;28;20032;-77
2022/04/06 04:16:06;;;;;;;40.97;21.13;;;205.20;2252.80;;;;;;5003582;28;19905;-82
2022/04/06 04:18:31;;;;;;;36.00;18.85;;;205.20;2252.80;;;;;;5002808;28;20037;-76
2022/04/06 04:23:42;;;;;;;42.50;17.98;;;205.30;2252.80;;;;;;5004567;28;20029;-78
2022/04/06 04:26:07;;;;;;;;;;;205.30;2252.80;;;;;;5002155;28;20034;-78
2022/04/06 04:28:34;;;;;;;30.05;17.70;;;205.20;2252.80;;;;;;5004195;28;19912;-84
2022/04/06 04:31:00;;;;;;;34.13;18.55;;;205.00;2252.80;;;;;;5002151;28;20482;-77
2022/04/06 04:33:26;;;;;;;34.35;20.13;;;205.10;2252.80;;;;;;5004292;28;20053;-78
2022/04/06 04:35:52;;;;;;;39.20;19.98;;;205.10;2252.80;;;;;;5002773;28;20057;-77
2022/04/06 04:38:18;;;;;;;34.83;18.98;;;205.20;2252.80;;;;;;5002007;28;20026;-78
2022/04/06 04:40:43;;;;;;;;;;;205.40;2252.80;;;;;;5003628;28;20459;-78
2022/04/06 04:43:09;;;;;;;39.58;19.25;;;205.40;2252.80;;;;;;5000858;28;19917;-82
2022/04/06 04:45:34;;;;;;;;;;;205.40;2252.80;;;;;;5004280;28;20112;-78
2022/04/06 04:48:00;;;;;;;40.20;20.33;;;205.50;2252.80;;;;;;5007415;28;19951;-83
2022/04/06 04:50:26;;;;;;;;;;;205.40;2252.80;;;;;;5005321;28;20069;-79
2022/04/06 04:52:51;;;;;;;39.45;18.63;;;205.40;2252.80;;;;;;5006958;28;19920;-85
2022/04/06 04:55:18;;;;;;;;;;;205.40;2252.80;;;;;;5006162;28;20061;-78
2022/04/06 04:57:44;;;;;;;40.47;19.55;;;205.50;2252.80;;;;;;5005393;28;19960;-79
2022/04/06 05:00:11;;;;;;;35.15;20.02;;;205.50;2252.80;;;;;;5006526;28;20100;-78
2022/04/06 05:02:37;;;;;;;39.78;20.52;;;205.60;2252.80;;;;;;5005290;28;20026;-78
2022/04/06 05:05:08;;;;;;;33.30;20.35;;;205.60;2252.80;;;;;;5005501;28;20014;-82
2022/04/06 05:07:37;;;;;;;42.97;21.48;;;205.60;2252.80;;;;;;5005193;28;20022;-79
2022/04/06 05:10:07;;;;;;;35.28;19.02;;;205.60;2252.80;;;;;;5006217;28;20011;-79
2022/04/06 05:12:33;;;;;;;38.65;20.17;;;205.70;2252.80;;;;;;5004398;28;20471;-83
2022/04/06 05:15:01;;;;;;;;;;;205.70;2252.80;;;;;;5006225;28;20030;-79
2022/04/06 05:17:28;;;;;;;32.00;17.75;;;230.40;2252.80;;;;;;5006793;28;19956;-77
2022/04/06 05:19:54;;;;;;;33.95;19.30;;;230.40;2252.80;;;;;;5005885;28;20049;-78
2022/04/06 05:22:20;;;;;;;35.38;19.08;;;230.50;2252.80;;;;;;5007025;28;20093;-78
2022/04/06 05:24:46;;;;;;;35.15;18.90;;;230.60;2252.80;;;;;;5006012;28;20022;-83
2022/04/06 05:27:12;;;;;;;;;;;230.60;2252.80;;;;;;5006687;28;20100;-78
2022/04/06 05:29:38;;;;;;;37.03;21.30;;;230.60;2252.80;;;;;;5004911;28;19996;-77
2022/04/06 05:32:03;;;;;;;;;;;230.70;2252.80;;;;;;5005326;28;20046;-77
2022/04/06 05:34:29;;;;;;;32.20;17.85;;;230.80;2252.80;;;;;;5006032;28;19920;-77
2022/04/06 05:36:55;;;;;;;;;;;230.90;2252.80;;;;;;5004680;28;20026;-79
2022/04/06 05:39:21;;;;;;;35.17;19.80;;;230.90;2252.80;;;;;;5005251;28;19949;-84
2022/04/06 05:41:49;;;;;;;33.15;19.75;;;231.10;2252.80;;;;;;5006040;28;20042;-78
2022/04/06 05:44:16;;;;;;;37.55;19.63;;;231.00;2252.80;;;;;;5003781;28;20028;-78
2022/04/06 05:46:42;;;;;;;40.83;20.52;;;231.10;2252.80;;;;;;5004902;28;20022;-78
2022/04/06 05:49:08;;;;;;;31.17;19.92;;;231.20;2252.80;;;;;;5006854;28;20030;-79
2022/04/06 05:51:34;;;;;;;41.88;21.90;;;231.30;2252.80;;;;;;5004130;28;20026;-78
2022/04/06 05:54:03;;;;;;;35.42;20.33;;;256.00;2252.80;;;;;;5006270;28;20048;-77
2022/04/06 05:56:30;;;;;;;31.58;19.90;;;231.30;2252.80;;;;;;5003860;28;20030;-76
2022/04/06 05:58:56;;;;;;;41.03;20.45;;;256.00;2252.80;;;;;;5002210;28;20030;-81
2022/04/06 06:01:22;;;;;;;34.53;19.98;;;256.00;2252.80;;;;;;4995646;28;20394;-78
2022/04/06 06:03:47;;;;;;;;;;;256.10;2252.80;;;;;;4996131;28;20481;-78
2022/04/06 06:06:13;;;;;;;34.17;19.50;;;256.10;2252.80;;;;;;4995708;28;20001;-80
2022/04/06 06:08:39;;;;;;;32.78;18.48;;;256.20;2252.80;;;;;;4995922;28;20060;-82
2022/04/06 06:11:05;;;;;;;;;;;256.30;2252.80;;;;;;4996222;28;20489;-80
2022/04/06 06:13:31;;;;;;;34.95;18.67;;;256.50;2252.80;;;;;;4995256;28;19906;-84
2022/04/06 06:15:58;;;;;;;36.03;18.17;;;256.60;2252.80;;;;;;4995414;28;20128;-78
2022/04/06 06:18:27;;;;;;;32.75;18.83;;;281.70;2278.40;;;;;;4998007;28;20386;-76
2022/04/06 06:20:53;;;;;;;29.10;17.38;;;256.90;2252.80;;;;;;5011626;28;20041;-79
2022/04/06 06:23:19;;;;;;;37.97;19.58;;;282.00;2278.40;;;;;;5011309;28;20475;-77
2022/04/06 06:25:45;;;;;;;28.65;18.42;;;281.90;2278.40;;;;;;5004634;28;20034;-77
2022/04/06 06:28:11;;;;;;;;;;;282.00;2278.40;;;;;;5005334;28;20109;-76
2022/04/06 06:30:36;;;;;;;33.22;18.08;;;282.10;2278.40;;;;;;5003062;28;20311;-83
2022/04/06 06:33:02;;;;;;;;;;;282.20;2278.40;;;;;;5006567;28;20022;-78
2022/04/06 06:35:28;;;;;;;34.15;18.70;;;282.30;2278.40;;;;;;5006149;28;19905;-77
2022/04/06 06:37:55;;;;;;;;;;;282.40;2278.40;;;;;;4996293;28;20054;-77
2022/04/06 06:40:23;;;;;;;27.95;13.10;;;282.50;2278.40;;;;;;4994393;28;19928;-83
2022/04/06 06:42:49;;;;;;;33.67;18.88;;;307.30;2304.00;;;;;;4994651;28;20034;-77
2022/04/06 06:45:15;;;;;;;37.40;18.90;;;307.40;2304.00;;;;;;4995678;28;20489;-78
2022/04/06 06:47:41;;;;;;;29.83;18.58;;;307.60;2304.00;;;;;;4996119;28;20129;-75
2022/04/06 06:50:12;;;;;;;30.75;17.40;;;307.80;2304.00;;;;;;5003172;28;20033;-75
2022/04/06 06:52:38;;;;;;;26.00;16.52;;;308.00;2304.00;;;;;;5002332;28;20030;-76
2022/04/06 06:55:11;;;;;;;29.42;17.45;;;308.10;2252.80;;;;;;5002456;28;20054;-76
2022/04/06 06:57:37;;;;;;;30.55;17.30;;;332.80;2201.60;;;;;;5020004;28;20101;-76
2022/04/06 07:00:04;;;;;;;28.90;16.67;;;333.00;2227.20;;;;;;5011059;28;20113;-78
2022/04/06 07:02:30;;;;;;;26.55;17.13;;;333.20;2176.00;;;;;;5013816;28;20125;-78
2022/04/06 07:04:56;;;;;;;29.02;16.70;;;333.30;2252.80;;;;;;5015032;28;20097;-76
2022/04/06 07:07:22;;;;;;;32.63;17.15;;;333.50;2201.60;;;;;;5014827;28;20097;-79
2022/04/06 07:09:47;;;;;;;31.23;16.42;;;333.70;2176.00;;;;;;5013257;28;20072;-83
2022/04/06 07:12:13;;;;;;;27.77;16.42;;;358.40;2124.80;;;;;;5015033;28;20386;-84
2022/04/06 07:14:39;;;;;;;35.90;16.88;;;358.60;2099.20;;;;;;5013760;28;20053;-76
2022/04/06 07:17:05;;;;;;;28.35;15.45;;;358.80;2048.00;;;;;;5013308;28;20433;-77
2022/04/06 07:19:30;;;;;;;28.70;16.23;;;358.90;2099.20;;;;;;5013244;28;20018;-77
2022/04/06 07:21:56;;;;;;;25.60;15.63;;;359.00;1996.80;;;;;;5013172;28;20088;-77
2022/04/06 07:24:22;;;;;;;27.38;14.00;;;359.20;1945.60;;;;;;5013102;28;20402;-77
2022/04/06 07:26:48;;;;;;;34.10;16.25;;;359.30;1920.00;;;;;;5013513;28;20029;-79
2022/04/06 07:29:15;;;;;;;23.88;14.10;;;384.00;1971.20;;;;;;5013305;28;20378;-78
2022/04/06 07:31:44;;;;;;;26.05;15.98;;;384.20;1971.20;;;;;;5013086;28;20394;-76
2022/04/06 07:34:10;;;;;;;22.38;13.65;;;384.40;1945.60;;;;;;5013039;28;20018;-75
2022/04/06 07:36:37;;;;;;;21.70;14.27;;;384.60;1920.00;;;;;;5013134;28;20057;-76
2022/04/06 07:39:06;;;;;;;29.05;14.63;;;384.70;1920.00;;;;;;5012893;28;20037;-77
2022/04/06 07:41:32;;;;;;;22.73;13.30;;;384.70;1843.20;;;;;;5013028;28;20088;-75
2022/04/06 07:43:59;;;;;;;23.27;11.48;;;384.60;1843.20;;;;;;5008070;28;20022;-77
2022/04/06 07:46:25;;;;;;;19.42;10.63;;;409.60;1817.60;;;;;;5011793;28;20463;-76
2022/04/06 07:48:50;;;;;;;14.73;9.82;;;409.70;1817.60;;;;;;5010691;28;20033;-80
2022/04/06 07:51:17;;;;;;;14.35;9.05;;;409.90;1766.40;;;;;;5005745;28;20018;-78
2022/04/06 07:53:43;;;;;;;22.77;9.50;;;410.00;1766.40;;;;;;5002402;28;20030;-76
2022/04/06 07:56:09;;;;;;;16.92;9.57;;;410.00;1689.60;;;;;;5004560;28;20100;-75
2022/04/06 07:58:35;;;;;;;10.60;7.88;;;410.20;1689.60;;;;;;5002714;28;20017;-75
2022/04/06 08:01:02;;;;;;;18.30;9.38;;;410.30;1638.40;;;;;;5004383;28;20037;-75
2022/04/06 08:03:29;;;;;;;11.82;7.65;;;410.50;1638.40;;;;;;4996637;28;20058;-75
2022/04/06 08:05:56;;;;;;;21.52;9.80;;;410.50;1587.20;;;;;;4994249;28;20022;-76
2022/04/06 08:08:22;;;;;;;11.88;7.30;;;435.20;1561.60;;;;;;4994120;28;20020;-75
2022/04/06 08:10:47;;;;;;;11.90;7.80;;;435.30;1536.00;;;;;;4994066;28;20026;-86
2022/04/06 08:13:13;;;;;;;12.40;7.07;;;435.50;1536.00;;;;;;4992963;28;20022;-77
2022/04/06 08:15:39;;;;;;;15.00;7.75;;;435.50;1484.80;;;;;;4992912;28;20189;-76
2022/04/06 08:18:06;;;;;;;10.55;6.68;;;435.60;1510.40;;;;;;4994135;28;20023;-75
2022/04/06 08:20:32;;;;;;;13.75;6.82;;;435.80;1510.40;;;;;;4993850;28;20022;-75
2022/04/06 08:22:58;;;;;;;15.45;6.90;;;435.90;1459.20;;;;;;4994129;28;20035;-76
2022/04/06 08:25:25;;;;;;;12.27;6.88;;;435.90;1459.20;;;;;;4994194;28;20031;-76
2022/04/06 08:27:53;;;;;;;14.65;6.78;;;436.10;1510.40;;;;;;4993166;28;20023;-77
2022/04/06 08:30:22;;;;;;;13.25;7.40;;;460.80;1484.80;;;;;;4992727;28;20121;-78
2022/04/06 08:32:48;;;;;;;15.77;8.80;;;436.10;1433.60;;;;;;4992946;28;20022;-78
2022/04/06 08:35:17;;;;;;;9.30;5.90;;;460.90;1536.00;;;;;;4993007;28;20019;-78
2022/04/06 08:37:43;;;;;;;12.07;6.38;;;460.90;1433.60;;;;;;4992903;28;20026;-77
2022/04/06 08:40:12;;;;;;;10.50;6.20;;;461.00;1433.60;;;;;;4992810;28;20479;-78
2022/04/06 08:42:38;;;;;;;10.38;5.78;;;461.00;1433.60;;;;;;4997933;28;20383;-77
2022/04/06 08:45:08;;;;;;;14.35;8.25;;;461.10;1459.20;;;;;;5002949;28;20080;-86
2022/04/06 08:47:36;;;;;;;12.05;5.97;;;461.10;1459.20;;;;;;5002727;28;20026;-77
2022/04/06 08:50:04;;;;;;;11.02;5.78;;;461.20;1433.60;;;;;;5012028;28;20088;-88
2022/04/06 08:52:34;;;;;;;15.45;7.68;;;461.30;1382.40;;;;;;5013244;28;20482;-89
2022/04/06 08:55:00;;;;;;;15.10;7.53;;;461.30;1408.00;;;;;;5012439;28;20054;-87
2022/04/06 08:57:27;;;;;;;14.77;7.32;;;461.50;1459.20;;;;;;5012606;28;20108;-88
2022/04/06 08:59:54;;;;;;;11.73;6.78;;;461.60;1459.20;;;;;;5012545;28;20088;-82
2022/04/06 09:02:20;;;;;;;12.90;6.70;;;;;;;;;;5013820;28;20030;-78
2022/04/06 09:04:54;;;;;;;19.17;6.82;;;486.40;1408.00;;;;;;5012442;28;20026;-87
2022/04/06 09:07:21;;;;;;;14.43;7.22;;;486.50;1433.60;;;;;;5013514;28;20030;-76
2022/04/06 09:09:51;;;;;;;9.73;6.60;;;486.50;1382.40;;;;;;5013700;28;20032;-85
2022/04/06 09:12:19;;;;;;;11.60;6.07;;;486.60;1408.00;;;;;;5000924;28;20025;-78
2022/04/06 09:14:46;;;;;;;12.98;6.13;;;486.60;1382.40;;;;;;5013465;28;20045;-78
2022/04/06 09:17:12;;;;;;;9.88;6.68;;;486.70;1382.40;;;;;;5012372;28;20520;-79
2022/04/06 09:19:45;;;;;;;14.10;6.30;;;486.80;1356.80;;;;;;5012013;28;20030;-88
2022/04/06 09:22:10;;;;;;;9.57;5.35;;;486.80;1356.80;;;;;;5012018;28;20045;-88
2022/04/06 09:24:37;;;;;;;7.55;4.57;;;486.80;1331.20;;;;;;5012268;28;20421;-87
2022/04/06 09:27:04;;;;;;;8.20;4.72;;;486.90;1305.60;;;;;;5012224;28;20034;-86
2022/04/06 09:29:35;;;;;;;10.55;5.10;;;487.00;1305.60;;;;;;5012264;28;20104;-79
2022/04/06 09:32:10;;;;;;;6.97;4.55;;;487.10;1331.20;;;;;;5013718;28;20025;-78
2022/04/06 09:34:41;;;;;;;9.52;3.85;;;487.20;1305.60;;;;;;5015349;28;20053;-78
2022/04/06 09:37:28;;;;;;;8.73;4.03;;;487.20;1254.40;;;;;;4996227;28;20033;-79
2022/04/06 09:39:56;;;;;;;10.05;3.97;;;487.30;1228.80;;;;;;4995955;28;20033;-79
2022/04/06 09:42:24;;;;;;;7.47;4.30;;;487.30;1203.20;;;;;;4995782;28;20383;-82
2022/04/06 09:47:58;;;;;;;7.25;4.70;;;487.30;1177.60;;;;;;5004784;28;20544;-79
2022/04/06 09:50:30;;;;;;;8.98;4.63;;;512.20;1203.20;;;;;;5000701;28;20026;-79
2022/04/06 09:52:57;;;;;;;10.35;5.13;;;512.40;1203.20;;;;;;5001303;28;20022;-83
2022/04/06 09:55:23;;;;;;;14.32;5.18;;;512.40;1152.00;;;;;;5005257;28;20392;-83
2022/04/06 09:57:51;;;;;;;10.85;4.35;;;512.60;1152.00;;;;;;5005647;28;20023;-78
2022/04/06 10:00:26;;;;;;;9.60;4.63;;;512.60;1126.40;;;;;;5006138;28;20025;-79
2022/04/06 10:03:10;;;;;;;7.35;3.60;;;512.70;1152.00;;;;;;5005672;28;20027;-81
2022/04/06 10:05:38;;;;;;;8.25;4.15;;;512.80;1126.40;;;;;;5003093;28;20109;-78
2022/04/06 10:08:09;;;;;;;9.10;3.95;;;512.90;1126.40;;;;;;4995412;28;20033;-85
2022/04/06 10:10:42;;;;;;;7.50;4.25;;;537.70;1126.40;;;;;;4995312;28;20080;-86
2022/04/06 10:13:08;;;;;;;10.85;4.32;;;537.90;1152.00;;;;;;4996498;28;20022;-78
2022/04/06 10:15:35;;;;;;;6.40;3.88;;;538.00;1152.00;;;;;;4999199;28;20029;-85
2022/04/06 10:18:02;;;;;;;7.82;4.68;;;537.90;1100.80;;;;;;5003366;28;20034;-78
2022/04/06 10:20:40;;;;;;;9.00;4.07;;;538.00;1152.00;;;;;;5004856;28;20026;-79
2022/04/06 10:23:18;;;;;;;6.70;4.47;;;538.10;1152.00;;;;;;5019835;28;20105;-79
2022/04/06 10:26:04;;;;;;;8.63;4.55;;;538.20;1126.40;;;;;;5005003;28;20045;-81
2022/04/06 10:28:33;;;;;;;11.37;4.20;;;538.40;1152.00;;;;;;5004987;28;20505;-77
2022/04/06 10:31:16;;;;;;;11.30;3.60;;;538.20;1100.80;;;;;;5002939;28;20041;-78
2022/04/06 10:33:45;;;;;;;6.25;3.70;;;538.30;1100.80;;;;;;5006124;28;20036;-78
2022/04/06 10:36:28;;;;;;;4.63;3.00;;;563.20;1126.40;;;;;;5003932;28;20039;-78
2022/04/06 10:39:05;;;;;;;7.82;4.35;;;563.40;1126.40;;;;;;5004281;28;20487;-77
2022/04/06 10:41:32;;;;;;;7.85;3.90;;;563.60;1126.40;;;;;;5004762;28;20034;-77
2022/04/06 10:43:58;;;;;;;4.82;3.30;;;563.60;1100.80;;;;;;5003322;28;20056;-77
2022/04/06 10:46:40;;;;;;;7.60;4.05;;;563.70;1126.40;;;;;;5002560;28;20045;-77
2022/04/06 10:49:06;;;;;;;9.48;3.85;;;563.60;1075.20;;;;;;5004865;28;20426;-79
2022/04/06 10:51:38;;;;;;;7.18;4.22;;;563.70;1100.80;;;;;;5002224;28;20113;-80
2022/04/06 10:54:13;;;;;;;7.63;3.83;;;563.90;1100.80;;;;;;4994658;28;20069;-80
2022/04/06 10:57:01;;;;;;;5.40;3.00;;;564.00;1100.80;;;;;;4995681;28;20034;-85
2022/04/06 10:59:30;;;;;;;6.30;3.72;;;563.90;1075.20;;;;;;4994200;28;20056;-79
2022/04/06 11:02:26;;;;;;;8.07;4.15;;;564.00;1049.60;;;;;;5000586;28;20038;-79
2022/04/06 11:04:52;;;;;;;6.50;4.13;;;564.00;1075.20;;;;;;5004593;28;20068;-82
2022/04/06 11:10:27;;;;;;;7.30;3.92;;;564.10;1075.20;;;;;;5002979;28;20076;-80
2022/04/06 11:12:57;;;;;;;5.90;3.40;;;564.10;1075.20;;;;;;5004136;28;20058;-83
2022/04/06 11:15:34;;;;;;;10.48;3.60;;;588.80;1024.00;;;;;;5004113;28;20030;-79
2022/04/06 11:18:00;;;;;;;6.55;3.10;;;589.10;1075.20;;;;;;5019641;28;20029;-83
2022/04/06 11:20:31;;;;;;;5.10;3.05;;;589.30;1049.60;;;;;;5005006;28;20026;-80
2022/04/06 11:22:58;;;;;;;8.63;3.70;;;589.30;1075.20;;;;;;5013597;28;20048;-79
2022/04/06 11:25:28;;;;;;;7.40;3.20;;;589.20;1049.60;;;;;;5014593;28;20030;-84
2022/04/06 11:27:55;;;;;;;7.88;3.33;;;589.20;1049.60;;;;;;5013790;28;20040;-84
2022/04/06 11:30:26;;;;;;;9.40;3.33;;;589.20;1049.60;;;;;;5013319;28;20393;-85
2022/04/06 11:32:57;;;;;;;8.02;2.90;;;589.30;1049.60;;;;;;5004153;28;20473;-85
2022/04/06 11:35:36;;;;;;;6.68;2.65;;;589.60;1049.60;;;;;;5002043;28;20026;-79
2022/04/06 11:38:07;;;;;;;4.63;3.03;;;589.60;1049.60;;;;;;5002171;28;20038;-82
2022/04/06 11:40:37;;;;;;;8.00;4.22;;;589.50;1024.00;;;;;;5003572;28;20084;-80
2022/04/06 11:43:06;;;;;;;4.22;2.85;;;589.60;1024.00;;;;;;5003820;28;20026;-78
2022/04/06 11:45:40;;;;;;;7.20;2.90;;;589.60;998.40;;;;;;5001420;28;20026;-78
2022/04/06 11:48:07;;;;;;;6.70;2.65;;;589.70;1024.00;;;;;;5004286;28;20100;-78
2022/04/06 11:50:36;;;;;;;4.93;2.40;;;614.50;1024.00;;;;;;5003848;28;20057;-78
2022/04/06 11:53:07;;;;;;;6.47;2.30;;;614.50;1024.00;;;;;;5001992;28;20045;-78
2022/04/06 11:55:51;;;;;;;6.57;2.67;;;614.50;1024.00;;;;;;5003191;28;20049;-79
2022/04/06 11:58:39;;;;;;;8.93;2.90;;;614.50;1024.00;;;;;;5003235;28;20034;-78
2022/04/06 12:01:13;;;;;;;5.07;2.65;;;614.50;998.40;;;;;;5004202;28;20486;-78
2022/04/06 12:03:42;;;;;;;3.40;2.33;;;614.80;1024.00;;;;;;5007613;28;20464;-78
2022/04/06 12:06:14;;;;;;;3.42;2.30;;;614.60;998.40;;;;;;5002897;28;20026;-79
2022/04/06 12:08:41;;;;;;;5.28;2.30;;;614.50;998.40;;;;;;5003344;28;20018;-86
2022/04/06 12:11:07;;;;;;;5.95;2.60;;;614.60;972.80;;;;;;5003973;28;20026;-77
2022/04/06 12:13:41;;;;;;;5.28;2.30;;;614.60;947.20;;;;;;5003066;28;20038;-79
2022/04/06 12:16:08;;;;;;;4.85;2.38;;;614.60;947.20;;;;;;5003924;28;20032;-84
2022/04/06 12:18:38;;;;;;;8.85;2.97;;;614.40;972.80;;;;;;4996046;28;20034;-81
2022/04/06 12:21:18;;;;;;;9.80;3.10;;;614.40;998.40;;;;;;4993247;28;20034;-80
2022/04/06 12:23:47;;;;;;;4.15;2.40;;;614.50;1024.00;;;;;;4994368;28;20031;-80
2022/04/06 12:26:13;;;;;;;3.85;2.30;;;614.60;998.40;;;;;;4993028;28;20034;-82
2022/04/06 12:28:39;;;;;;;4.30;2.85;;;614.70;972.80;;;;;;4993532;28;20041;-80
2022/04/06 12:31:06;;;;;;;5.03;3.10;;;614.60;998.40;;;;;;4993327;28;20026;-79
2022/04/06 12:33:40;;;;;;;5.75;2.70;;;614.90;972.80;;;;;;4992973;28;20025;-79